Time;durP1;ratioP1;P1;durP2;ratioP2;P2;SDS_P1;SDS_P2;PMS_P1;PMS_P2;Temp;Humidity;BMP_temperature;BMP_pressure;BME280_temperature;BME280_humidity;BME280_pressure;Samples;Min_cycle;Max_cycle;Signal;HPM_P1;HPM_P2
2023/08/13 00:01:44;;;;;;;10.05;6.65;;;410.50;2355.20;;;;;;4991221;28;20023;-62
2023/08/13 00:04:10;;;;;;;9.02;6.65;;;410.50;2355.20;;;;;;4991997;28;20501;-63
2023/08/13 00:06:36;;;;;;;8.48;6.00;;;410.50;2355.20;;;;;;4991473;28;20073;-62
2023/08/13 00:09:02;;;;;;;7.60;6.45;;;410.50;2355.20;;;;;;4991382;28;20099;-61
2023/08/13 00:11:27;;;;;;;8.18;6.65;;;410.50;2355.20;;;;;;4991435;28;20385;-63
2023/08/13 00:13:53;;;;;;;8.38;7.18;;;410.40;2355.20;;;;;;4991395;28;20056;-62
2023/08/13 00:16:19;;;;;;;10.73;7.07;;;410.50;2355.20;;;;;;4991504;28;20019;-62
2023/08/13 00:18:45;;;;;;;8.23;6.95;;;410.40;2355.20;;;;;;4990794;28;20038;-63
2023/08/13 00:21:11;;;;;;;12.70;6.97;;;410.20;2355.20;;;;;;4973724;28;20381;-62
2023/08/13 00:23:37;;;;;;;9.55;7.38;;;410.40;2355.20;;;;;;4971210;28;20062;-62
2023/08/13 00:26:03;;;;;;;9.35;6.82;;;410.30;2355.20;;;;;;4980738;28;20033;-62
2023/08/13 00:28:29;;;;;;;8.18;7.00;;;410.20;2355.20;;;;;;4974230;28;20113;-62
2023/08/13 00:30:54;;;;;;;8.75;6.82;;;410.20;2355.20;;;;;;4971142;28;20050;-61
2023/08/13 00:33:20;;;;;;;9.48;6.30;;;410.20;2355.20;;;;;;4971212;28;20049;-61
2023/08/13 00:35:46;;;;;;;7.80;6.90;;;410.20;2355.20;;;;;;4971115;28;20078;-61
2023/08/13 00:38:12;;;;;;;9.88;7.13;;;410.10;2355.20;;;;;;4984286;28;20031;-61
2023/08/13 00:40:37;;;;;;;7.57;6.70;;;410.10;2355.20;;;;;;4970881;28;20039;-60
2023/08/13 00:43:03;;;;;;;10.90;6.72;;;410.20;2355.20;;;;;;4971127;28;20061;-61
2023/08/13 00:45:32;;;;;;;9.85;6.63;;;410.10;2355.20;;;;;;4971315;28;20423;-59
2023/08/13 00:47:59;;;;;;;8.02;6.60;;;410.10;2355.20;;;;;;4970951;28;20054;-60
2023/08/13 00:50:26;;;;;;;8.45;6.25;;;410.10;2355.20;;;;;;4971884;28;20023;-60
2023/08/13 00:52:52;;;;;;;9.57;7.40;;;410.00;2355.20;;;;;;4990564;28;20038;-61
2023/08/13 00:55:18;;;;;;;12.88;7.00;;;409.90;2355.20;;;;;;4976682;28;20015;-61
2023/08/13 00:57:43;;;;;;;7.22;6.32;;;409.90;2355.20;;;;;;4990712;28;20057;-60
2023/08/13 01:00:10;;;;;;;9.45;6.95;;;409.90;2355.20;;;;;;4990475;28;20453;-62
2023/08/13 01:02:37;;;;;;;8.70;6.60;;;410.00;2355.20;;;;;;4989097;28;20029;-63
2023/08/13 01:05:05;;;;;;;7.43;6.60;;;409.90;2355.20;;;;;;4990502;28;20025;-60
2023/08/13 01:07:45;;;;;;;8.13;6.30;;;409.90;2355.20;;;;;;4996095;28;20096;-64
2023/08/13 01:10:34;;;;;;;9.52;7.63;;;409.90;2355.20;;;;;;4985095;28;20034;-61
2023/08/13 01:13:12;;;;;;;6.90;5.93;;;409.90;2355.20;;;;;;4994191;28;20251;-61
2023/08/13 01:15:40;;;;;;;9.15;7.55;;;409.90;2355.20;;;;;;4990324;28;20065;-61
2023/08/13 01:18:07;;;;;;;8.70;6.88;;;409.90;2355.20;;;;;;4990284;28;20022;-62
2023/08/13 01:20:36;;;;;;;7.68;6.88;;;409.90;2355.20;;;;;;4990470;28;20022;-61
2023/08/13 01:23:02;;;;;;;8.95;6.93;;;409.90;2355.20;;;;;;4990111;28;20030;-61
2023/08/13 01:25:29;;;;;;;9.30;6.47;;;409.80;2355.20;;;;;;4989978;28;20069;-61
2023/08/13 01:28:15;;;;;;;8.27;6.55;;;409.80;2355.20;;;;;;4990064;28;20527;-62
2023/08/13 01:31:11;;;;;;;10.32;7.18;;;409.80;2355.20;;;;;;4957988;28;20023;-62
2023/08/13 01:33:41;;;;;;;12.45;7.07;;;409.80;2355.20;;;;;;4988528;28;20069;-61
2023/08/13 01:36:07;;;;;;;8.90;7.03;;;409.70;2355.20;;;;;;4989885;28;20038;-61
2023/08/13 01:38:34;;;;;;;7.47;6.57;;;409.70;2355.20;;;;;;4989804;28;20034;-61
2023/08/13 01:41:04;;;;;;;10.15;6.53;;;409.70;2355.20;;;;;;4989693;28;20030;-61
2023/08/13 01:43:30;;;;;;;7.72;6.55;;;409.70;2355.20;;;;;;4976849;28;20649;-63
2023/08/13 01:45:58;;;;;;;7.97;6.25;;;409.70;2355.20;;;;;;4989586;28;20440;-61
2023/08/13 01:48:23;;;;;;;7.10;5.95;;;409.70;2355.20;;;;;;4989514;28;20018;-61
2023/08/13 01:50:49;;;;;;;10.48;6.95;;;409.70;2355.20;;;;;;4989617;28;20027;-61
2023/08/13 01:53:15;;;;;;;7.03;6.32;;;409.60;2355.20;;;;;;4989999;28;20527;-61
2023/08/13 01:55:40;;;;;;;7.63;6.00;;;409.60;2355.20;;;;;;4989456;28;20539;-61
2023/08/13 01:58:07;;;;;;;8.25;6.10;;;409.60;2355.20;;;;;;4989646;28;20022;-61
2023/08/13 02:00:33;;;;;;;8.65;7.18;;;409.60;2355.20;;;;;;4989652;28;20023;-61
2023/08/13 02:02:59;;;;;;;8.88;6.85;;;409.60;2355.20;;;;;;4989936;28;20033;-61
2023/08/13 02:05:24;;;;;;;9.85;7.22;;;384.90;2329.60;;;;;;4989448;28;20060;-61
2023/08/13 02:07:50;;;;;;;7.53;6.57;;;384.90;2329.60;;;;;;4989539;28;20856;-61
2023/08/13 02:10:16;;;;;;;8.02;6.50;;;384.90;2329.60;;;;;;4989025;28;20027;-62
2023/08/13 02:12:42;;;;;;;12.18;7.13;;;384.90;2329.60;;;;;;4989894;28;20121;-61
2023/08/13 02:15:08;;;;;;;7.22;6.15;;;384.90;2329.60;;;;;;4993288;28;20030;-61
2023/08/13 02:17:34;;;;;;;8.80;6.00;;;384.90;2329.60;;;;;;4980404;28;20042;-60
2023/08/13 02:19:59;;;;;;;8.50;6.97;;;384.90;2329.60;;;;;;4993849;28;20023;-61
2023/08/13 02:22:25;;;;;;;8.30;6.72;;;384.80;2329.60;;;;;;4993700;28;20500;-61
2023/08/13 02:24:51;;;;;;;8.65;7.65;;;384.90;2329.60;;;;;;4993503;28;20376;-61
2023/08/13 02:27:16;;;;;;;7.25;6.25;;;384.80;2329.60;;;;;;4980288;28;20050;-61
2023/08/13 02:29:43;;;;;;;9.65;7.05;;;384.80;2329.60;;;;;;4993697;28;20027;-61
2023/08/13 02:32:09;;;;;;;8.18;6.75;;;384.70;2329.60;;;;;;4993193;28;20043;-60
2023/08/13 02:34:45;;;;;;;8.55;6.72;;;384.70;2329.60;;;;;;4993655;28;20034;-62
2023/08/13 02:37:11;;;;;;;6.90;6.18;;;384.60;2329.60;;;;;;4993631;28;20037;-61
2023/08/13 02:39:37;;;;;;;10.40;7.00;;;384.60;2329.60;;;;;;4992993;28;20026;-61
2023/08/13 02:42:03;;;;;;;8.00;6.18;;;384.60;2329.60;;;;;;4993527;28;20031;-61
2023/08/13 02:44:29;;;;;;;11.38;6.68;;;384.60;2329.60;;;;;;4974741;28;20039;-61
2023/08/13 02:46:54;;;;;;;8.88;7.00;;;384.60;2329.60;;;;;;4992890;28;20031;-61
2023/08/13 02:49:20;;;;;;;8.63;6.70;;;384.60;2329.60;;;;;;4992855;28;20027;-61
2023/08/13 02:51:45;;;;;;;9.80;6.53;;;384.70;2329.60;;;;;;4992980;28;20033;-61
2023/08/13 02:54:11;;;;;;;7.75;6.68;;;384.60;2329.60;;;;;;4992842;28;20034;-60
2023/08/13 02:56:38;;;;;;;10.48;7.82;;;384.60;2329.60;;;;;;4992549;28;20081;-61
2023/08/13 02:59:03;;;;;;;10.45;6.90;;;384.60;2329.60;;;;;;4992767;28;20082;-62
2023/08/13 03:01:29;;;;;;;7.95;7.15;;;384.50;2329.60;;;;;;4992935;28;20026;-61
2023/08/13 03:03:58;;;;;;;8.25;6.57;;;384.60;2329.60;;;;;;4992111;28;20026;-62
2023/08/13 03:06:25;;;;;;;9.52;7.00;;;384.50;2329.60;;;;;;4992571;28;20050;-61
2023/08/13 03:08:50;;;;;;;8.13;6.65;;;384.40;2329.60;;;;;;4992340;28;20173;-61
2023/08/13 03:11:17;;;;;;;8.43;7.20;;;384.40;2329.60;;;;;;4992724;28;20511;-62
2023/08/13 03:13:43;;;;;;;7.97;6.45;;;384.30;2329.60;;;;;;4992164;28;20054;-61
2023/08/13 03:16:09;;;;;;;8.45;7.40;;;384.30;2329.60;;;;;;4992693;28;20034;-62
2023/08/13 03:18:35;;;;;;;7.78;6.75;;;384.40;2329.60;;;;;;4974053;28;20038;-62
2023/08/13 03:21:01;;;;;;;6.90;5.97;;;384.30;2329.60;;;;;;4992630;28;20105;-62
2023/08/13 03:23:27;;;;;;;8.90;6.60;;;384.40;2329.60;;;;;;4991702;28;20133;-62
2023/08/13 03:25:53;;;;;;;8.57;6.70;;;384.30;2329.60;;;;;;4991221;28;20034;-62
2023/08/13 03:28:19;;;;;;;9.32;7.13;;;384.30;2329.60;;;;;;4991756;28;20022;-63
2023/08/13 03:30:44;;;;;;;8.75;6.97;;;384.30;2329.60;;;;;;4991736;28;20049;-62
2023/08/13 03:33:10;;;;;;;8.48;6.78;;;384.30;2329.60;;;;;;4991715;28;20073;-63
2023/08/13 03:35:40;;;;;;;8.00;6.88;;;384.20;2329.60;;;;;;4991943;28;20080;-62
2023/08/13 03:38:05;;;;;;;9.77;6.88;;;384.30;2329.60;;;;;;4991913;28;20030;-62
2023/08/13 03:40:32;;;;;;;9.75;7.30;;;384.10;2329.60;;;;;;4991924;28;20023;-62
2023/08/13 03:42:57;;;;;;;8.25;6.82;;;384.10;2329.60;;;;;;4991361;28;20527;-62
2023/08/13 03:45:23;;;;;;;7.43;6.72;;;384.10;2329.60;;;;;;4991984;28;20050;-63
2023/08/13 03:47:49;;;;;;;9.65;7.10;;;384.10;2329.60;;;;;;4991560;28;20412;-62
2023/08/13 03:50:14;;;;;;;10.07;7.03;;;384.10;2329.60;;;;;;4991906;28;20028;-62
2023/08/13 03:52:40;;;;;;;9.30;7.43;;;384.10;2329.60;;;;;;4991707;28;20046;-61
2023/08/13 03:55:06;;;;;;;9.70;7.07;;;384.10;2329.60;;;;;;4991577;28;20030;-62
2023/08/13 03:57:32;;;;;;;9.88;7.75;;;384.10;2329.60;;;;;;4991467;28;20030;-62
2023/08/13 03:59:57;;;;;;;9.68;7.20;;;384.20;2329.60;;;;;;4991428;28;20535;-61
2023/08/13 04:02:25;;;;;;;8.68;6.55;;;384.10;2329.60;;;;;;4991166;28;20033;-61
2023/08/13 04:04:51;;;;;;;8.30;6.60;;;384.20;2329.60;;;;;;4991609;28;20030;-62
2023/08/13 04:07:16;;;;;;;7.57;6.88;;;384.30;2329.60;;;;;;4991216;28;20081;-61
2023/08/13 04:09:42;;;;;;;9.10;6.72;;;384.40;2329.60;;;;;;4991446;28;20109;-61
2023/08/13 04:12:08;;;;;;;6.85;6.15;;;384.50;2329.60;;;;;;4988515;28;20061;-61
2023/08/13 04:14:33;;;;;;;8.80;6.47;;;384.70;2329.60;;;;;;4980814;28;20105;-62
2023/08/13 04:16:59;;;;;;;6.82;5.55;;;384.80;2329.60;;;;;;4990898;28;20026;-61
2023/08/13 04:19:25;;;;;;;8.68;5.63;;;384.90;2329.60;;;;;;4991119;28;20022;-62
2023/08/13 04:21:51;;;;;;;7.63;6.10;;;409.60;2355.20;;;;;;4991377;28;20114;-61
2023/08/13 04:24:17;;;;;;;6.93;5.65;;;409.70;2355.20;;;;;;4991151;28;20113;-61
2023/08/13 04:26:42;;;;;;;7.55;6.32;;;409.80;2355.20;;;;;;4991116;28;20030;-61
2023/08/13 04:29:08;;;;;;;12.00;5.93;;;409.90;2355.20;;;;;;4991242;28;20468;-60
2023/08/13 04:31:34;;;;;;;19.25;17.33;;;410.00;2355.20;;;;;;4990781;28;20085;-61
2023/08/13 04:34:00;;;;;;;14.45;12.95;;;410.10;2355.20;;;;;;4991146;28;20034;-61
2023/08/13 04:36:25;;;;;;;11.60;10.23;;;410.00;2355.20;;;;;;4990378;28;20022;-61
2023/08/13 04:38:51;;;;;;;9.65;8.65;;;410.20;2355.20;;;;;;4990920;28;20034;-61
2023/08/13 04:41:17;;;;;;;10.65;7.32;;;410.30;2355.20;;;;;;4990831;28;20480;-61
2023/08/13 04:43:42;;;;;;;7.72;6.75;;;410.50;2355.20;;;;;;4991372;28;20037;-61
2023/08/13 04:46:08;;;;;;;7.43;5.97;;;435.20;2355.20;;;;;;4990671;28;20081;-61
2023/08/13 04:48:47;;;;;;;7.70;5.90;;;435.40;2355.20;;;;;;4990927;28;20472;-61
2023/08/13 04:51:17;;;;;;;12.68;7.43;;;435.40;2355.20;;;;;;4991080;28;20388;-60
2023/08/13 04:53:43;;;;;;;7.90;6.22;;;436.10;2355.20;;;;;;4990933;28;20042;-61
2023/08/13 04:56:09;;;;;;;7.40;5.47;;;461.40;2380.80;;;;;;4990572;28;20105;-61
2023/08/13 04:58:35;;;;;;;9.63;5.82;;;563.70;2432.00;;;;;;4990693;28;20129;-61
2023/08/13 05:01:02;;;;;;;8.15;5.78;;;640.20;2124.80;;;;;;4992165;28;20117;-61
2023/08/13 05:03:28;;;;;;;7.22;5.43;;;691.20;1945.60;;;;;;4993500;28;20022;-62
2023/08/13 05:05:54;;;;;;;8.10;6.38;;;717.60;1766.40;;;;;;4993657;28;20025;-63
2023/08/13 05:08:20;;;;;;;7.68;5.47;;;743.00;1689.60;;;;;;4990798;28;20061;-62
2023/08/13 05:10:46;;;;;;;7.28;5.47;;;768.60;1612.80;;;;;;4990756;28;20030;-62
2023/08/13 05:13:14;;;;;;;5.97;5.35;;;743.20;1638.40;;;;;;4990359;28;20088;-62
2023/08/13 05:15:40;;;;;;;7.43;5.78;;;743.20;1638.40;;;;;;4990307;28;20069;-62
2023/08/13 05:18:06;;;;;;;7.45;5.70;;;768.60;1587.20;;;;;;4979425;28;20035;-62
2023/08/13 05:20:32;;;;;;;6.38;5.15;;;793.60;1587.20;;;;;;4989173;28;20023;-62
2023/08/13 05:22:58;;;;;;;5.57;4.97;;;768.80;1561.60;;;;;;4990346;28;20096;-62
2023/08/13 05:25:24;;;;;;;16.38;15.18;;;743.30;1638.40;;;;;;4990403;28;20022;-62
2023/08/13 05:27:50;;;;;;;11.02;9.80;;;743.00;1638.40;;;;;;4990351;28;20015;-62
2023/08/13 05:30:16;;;;;;;9.10;8.20;;;768.90;1561.60;;;;;;4989698;28;20357;-61
2023/08/13 05:32:41;;;;;;;8.38;6.78;;;819.30;1536.00;;;;;;4990333;28;20046;-63
2023/08/13 05:35:08;;;;;;;9.10;7.57;;;845.20;1484.80;;;;;;4989968;28;20025;-62
2023/08/13 05:37:33;;;;;;;8.13;7.30;;;871.20;1382.40;;;;;;4990321;28;20041;-62
2023/08/13 05:39:59;;;;;;;6.90;6.20;;;896.90;1331.20;;;;;;4989829;28;20113;-62
2023/08/13 05:42:25;;;;;;;14.43;13.20;;;922.10;1305.60;;;;;;4989848;28;20109;-62
2023/08/13 05:44:50;;;;;;;7.88;7.18;;;947.30;1280.00;;;;;;4989788;28;20461;-62
2023/08/13 05:47:16;;;;;;;11.02;10.02;;;947.40;1254.40;;;;;;4988913;28;20029;-63
2023/08/13 05:49:42;;;;;;;10.48;9.48;;;922.20;1280.00;;;;;;4990425;28;20066;-62
2023/08/13 05:52:07;;;;;;;6.90;6.30;;;947.20;1280.00;;;;;;4989749;28;20046;-62
2023/08/13 05:54:33;;;;;;;6.25;5.68;;;973.20;1203.20;;;;;;4972284;28;20038;-62
2023/08/13 05:56:59;;;;;;;6.32;5.82;;;998.70;1203.20;;;;;;4989987;28;20376;-63
2023/08/13 05:59:24;;;;;;;6.03;5.53;;;1024.20;1152.00;;;;;;4989798;28;20363;-62
2023/08/13 06:01:50;;;;;;;7.28;6.68;;;1050.40;1126.40;;;;;;4989602;28;20440;-63
2023/08/13 06:04:16;;;;;;;7.10;6.50;;;1075.20;1100.80;;;;;;4989262;28;20024;-64
2023/08/13 06:06:41;;;;;;;8.55;7.80;;;1050.50;1100.80;;;;;;4990049;28;20031;-63
2023/08/13 06:09:09;;;;;;;15.38;14.18;;;1075.80;1075.20;;;;;;4989644;28;20065;-64
2023/08/13 06:11:35;;;;;;;13.05;11.73;;;1050.50;1100.80;;;;;;4989571;28;20062;-64
2023/08/13 06:14:00;;;;;;;15.20;9.75;;;1075.30;1100.80;;;;;;4989355;28;20089;-63
2023/08/13 06:16:26;;;;;;;8.27;7.68;;;1075.30;1100.80;;;;;;4989135;28;20031;-63
2023/08/13 06:18:52;;;;;;;8.57;7.82;;;1100.90;1100.80;;;;;;4989731;28;20030;-63
2023/08/13 06:21:18;;;;;;;7.45;6.75;;;1101.10;1075.20;;;;;;4989618;28;20034;-63
2023/08/13 06:23:44;;;;;;;7.70;7.05;;;1101.40;1075.20;;;;;;4989715;28;20381;-63
2023/08/13 06:26:09;;;;;;;7.47;6.88;;;1126.70;1049.60;;;;;;4989638;28;20101;-64
2023/08/13 06:28:37;;;;;;;7.38;6.78;;;1152.00;1024.00;;;;;;4989219;28;20031;-62
2023/08/13 06:31:03;;;;;;;8.55;7.78;;;1152.40;1024.00;;;;;;4989673;28;20026;-63
2023/08/13 06:33:29;;;;;;;8.75;7.80;;;1152.40;1024.00;;;;;;4989300;28;20384;-63
2023/08/13 06:35:55;;;;;;;9.15;8.35;;;1178.00;998.40;;;;;;4989432;28;20022;-62
2023/08/13 06:38:20;;;;;;;8.45;7.68;;;1178.30;972.80;;;;;;4989225;28;20038;-63
2023/08/13 06:40:46;;;;;;;8.77;8.07;;;1203.30;972.80;;;;;;4989213;28;20026;-64
2023/08/13 06:43:12;;;;;;;8.73;7.93;;;1126.50;1049.60;;;;;;4989466;28;20083;-64
2023/08/13 06:45:38;;;;;;;9.88;8.52;;;1101.60;1049.60;;;;;;4989288;28;20377;-63
2023/08/13 06:48:04;;;;;;;8.48;7.55;;;1177.60;998.40;;;;;;4989113;28;20026;-63
2023/08/13 06:50:31;;;;;;;8.50;7.72;;;1127.00;1024.00;;;;;;4971940;28;20434;-63
2023/08/13 06:52:57;;;;;;;9.23;8.52;;;1152.10;1024.00;;;;;;4989199;28;20037;-63
2023/08/13 06:55:23;;;;;;;8.35;7.75;;;1126.80;1024.00;;;;;;4989640;28;20101;-63
2023/08/13 06:57:49;;;;;;;8.93;8.23;;;1126.50;1049.60;;;;;;4985149;28;20018;-63
2023/08/13 07:00:15;;;;;;;9.32;8.50;;;1178.10;972.80;;;;;;4983547;28;20106;-63
2023/08/13 07:02:41;;;;;;;9.43;8.75;;;1229.20;947.20;;;;;;4992273;28;20064;-63
2023/08/13 07:05:11;;;;;;;10.55;9.85;;;1228.80;947.20;;;;;;4992539;28;20376;-63
2023/08/13 07:07:36;;;;;;;9.23;8.52;;;1203.80;947.20;;;;;;4992842;28;20061;-62
2023/08/13 07:10:04;;;;;;;9.50;8.90;;;1229.20;947.20;;;;;;4981959;28;20122;-63
2023/08/13 07:12:29;;;;;;;10.05;9.15;;;1178.10;972.80;;;;;;4990440;28;20058;-61
2023/08/13 07:14:55;;;;;;;10.70;10.00;;;1178.50;947.20;;;;;;4992381;28;20026;-62
2023/08/13 07:17:21;;;;;;;10.45;9.45;;;1127.30;1024.00;;;;;;4992298;28;20022;-62
2023/08/13 07:19:49;;;;;;;10.15;9.45;;;1101.20;1024.00;;;;;;4981598;28;20087;-62
2023/08/13 07:22:15;;;;;;;9.93;9.25;;;1203.20;947.20;;;;;;4986515;28;20101;-63
2023/08/13 07:24:41;;;;;;;10.07;9.48;;;1178.30;921.60;;;;;;4984542;28;20062;-63
2023/08/13 07:27:10;;;;;;;10.63;9.77;;;1177.70;947.20;;;;;;4992315;28;20053;-62
2023/08/13 07:29:35;;;;;;;9.80;9.20;;;1177.60;947.20;;;;;;4992147;28;20030;-63
2023/08/13 07:32:01;;;;;;;9.77;8.88;;;1178.00;921.60;;;;;;4992183;28;20110;-63
2023/08/13 07:34:27;;;;;;;10.43;9.73;;;1177.70;921.60;;;;;;4992180;28;20432;-62
2023/08/13 07:36:53;;;;;;;11.02;10.13;;;1101.50;972.80;;;;;;4992412;28;20026;-63
2023/08/13 07:39:19;;;;;;;10.32;9.60;;;1152.10;921.60;;;;;;4991934;28;20022;-62
2023/08/13 07:41:48;;;;;;;11.15;10.27;;;1178.30;896.00;;;;;;4992052;28;20030;-63
2023/08/13 07:44:14;;;;;;;12.00;11.20;;;1229.20;870.40;;;;;;4992134;28;20034;-62
2023/08/13 07:46:39;;;;;;;13.02;12.02;;;1229.00;870.40;;;;;;4991751;28;20113;-64
2023/08/13 07:49:05;;;;;;;14.02;13.02;;;1254.80;844.80;;;;;;4991679;28;20388;-65
2023/08/13 07:51:31;;;;;;;11.75;10.85;;;1254.90;870.40;;;;;;4991845;28;20029;-63
2023/08/13 07:53:56;;;;;;;11.73;11.02;;;1178.20;870.40;;;;;;4991797;28;20436;-64
2023/08/13 07:56:22;;;;;;;12.13;10.98;;;1178.50;844.80;;;;;;4992166;28;20117;-62
2023/08/13 07:58:48;;;;;;;12.50;11.65;;;1152.70;896.00;;;;;;4974334;28;20385;-61
2023/08/13 08:01:14;;;;;;;13.20;12.20;;;1203.20;870.40;;;;;;4991991;28;20018;-63
2023/08/13 08:03:39;;;;;;;11.93;11.02;;;1203.70;844.80;;;;;;4991459;28;20050;-64
2023/08/13 08:06:05;;;;;;;11.85;10.80;;;1203.90;844.80;;;;;;4991706;28;20032;-63
2023/08/13 08:08:30;;;;;;;11.80;10.98;;;1152.90;896.00;;;;;;4991895;28;20042;-62
2023/08/13 08:10:56;;;;;;;11.43;10.63;;;1101.70;947.20;;;;;;4990711;28;20018;-64
2023/08/13 08:13:22;;;;;;;11.18;10.48;;;1152.10;921.60;;;;;;4991325;28;20047;-63
2023/08/13 08:15:48;;;;;;;11.27;10.38;;;1126.90;972.80;;;;;;4991290;28;20026;-65
2023/08/13 08:18:14;;;;;;;11.65;10.90;;;1126.90;947.20;;;;;;4991401;28;20117;-63
2023/08/13 08:20:39;;;;;;;11.50;10.38;;;1126.70;972.80;;;;;;4991885;28;20109;-66
2023/08/13 08:23:05;;;;;;;10.75;9.85;;;1126.60;972.80;;;;;;4991957;28;20030;-63
2023/08/13 08:25:31;;;;;;;11.68;10.82;;;1127.10;947.20;;;;;;4991753;28;20527;-62
2023/08/13 08:27:57;;;;;;;11.23;10.30;;;1126.70;972.80;;;;;;4991379;28;20026;-63
2023/08/13 08:30:22;;;;;;;11.07;10.27;;;1101.20;972.80;;;;;;4991389;28;20030;-63
2023/08/13 08:32:48;;;;;;;11.30;10.60;;;1126.70;972.80;;;;;;4990754;28;20031;-65
2023/08/13 08:35:14;;;;;;;10.88;10.18;;;1101.50;972.80;;;;;;4991120;28;20084;-65
2023/08/13 08:37:40;;;;;;;10.65;9.95;;;1075.30;998.40;;;;;;4991814;28;20033;-64
2023/08/13 08:40:06;;;;;;;9.07;8.38;;;1024.70;998.40;;;;;;4990708;28;20025;-64
2023/08/13 08:42:32;;;;;;;8.38;7.63;;;947.80;1100.80;;;;;;4991190;28;20045;-64
2023/08/13 08:44:59;;;;;;;7.93;7.13;;;922.00;1152.00;;;;;;4990540;28;20018;-64
2023/08/13 08:47:26;;;;;;;7.63;6.82;;;896.50;1177.60;;;;;;4990729;28;20030;-64
2023/08/13 08:49:54;;;;;;;7.20;6.50;;;845.70;1228.80;;;;;;4990747;28;20390;-63
2023/08/13 08:52:20;;;;;;;7.30;6.60;;;845.20;1280.00;;;;;;4990791;28;20031;-63
2023/08/13 08:54:48;;;;;;;7.55;6.32;;;845.30;1305.60;;;;;;4991590;28;20022;-64
2023/08/13 08:57:14;;;;;;;8.20;6.35;;;845.20;1280.00;;;;;;4992722;28;20090;-62
2023/08/13 08:59:40;;;;;;;7.05;6.40;;;819.50;1305.60;;;;;;4994810;28;20034;-65
2023/08/13 09:02:06;;;;;;;7.20;5.93;;;794.50;1356.80;;;;;;4990756;28;20387;-63
2023/08/13 09:04:32;;;;;;;9.40;5.95;;;794.20;1331.20;;;;;;4967445;28;20043;-63
2023/08/13 09:07:00;;;;;;;6.30;5.70;;;819.40;1382.40;;;;;;4982703;28;20026;-63
2023/08/13 09:09:27;;;;;;;8.35;6.13;;;819.20;1331.20;;;;;;4990262;28;20366;-64
2023/08/13 09:11:55;;;;;;;9.30;5.90;;;819.30;1331.20;;;;;;4990499;28;20539;-62
2023/08/13 09:14:21;;;;;;;8.32;6.10;;;793.90;1356.80;;;;;;4990487;28;20136;-62
2023/08/13 09:16:48;;;;;;;7.63;5.85;;;794.00;1356.80;;;;;;4990284;28;20446;-63
2023/08/13 09:19:15;;;;;;;8.73;6.35;;;794.00;1356.80;;;;;;4990612;28;20037;-63
2023/08/13 09:21:54;;;;;;;12.93;6.00;;;794.00;1356.80;;;;;;4990401;28;20038;-63
2023/08/13 09:24:34;;;;;;;6.88;6.28;;;794.00;1356.80;;;;;;4989873;28;20049;-63
2023/08/13 09:27:01;;;;;;;7.53;6.82;;;794.40;1382.40;;;;;;4974080;28;20106;-62
2023/08/13 09:29:29;;;;;;;9.02;5.50;;;793.60;1356.80;;;;;;4980283;28;20022;-63
2023/08/13 09:31:56;;;;;;;7.53;6.00;;;794.20;1408.00;;;;;;4989670;28;20380;-62
2023/08/13 09:34:23;;;;;;;6.18;5.40;;;794.30;1356.80;;;;;;4990391;28;20374;-63
2023/08/13 09:36:52;;;;;;;6.63;5.25;;;794.40;1331.20;;;;;;4990034;28;20372;-62
2023/08/13 09:39:18;;;;;;;5.97;5.40;;;793.60;1331.20;;;;;;4989846;28;20026;-62
2023/08/13 09:41:46;;;;;;;5.63;5.03;;;768.40;1331.20;;;;;;4990062;28;20039;-64
2023/08/13 09:44:14;;;;;;;7.38;5.30;;;743.30;1382.40;;;;;;4990034;28;20168;-62
2023/08/13 09:46:41;;;;;;;9.80;5.32;;;743.30;1382.40;;;;;;5002900;28;20144;-62
2023/08/13 09:49:09;;;;;;;7.10;5.38;;;743.10;1331.20;;;;;;4972005;28;20038;-63
2023/08/13 09:51:38;;;;;;;6.53;4.93;;;743.10;1356.80;;;;;;4989593;28;20396;-63
2023/08/13 09:54:36;;;;;;;6.45;4.72;;;743.10;1305.60;;;;;;4989557;28;20070;-63
2023/08/13 09:57:03;;;;;;;5.68;4.82;;;743.00;1331.20;;;;;;4910445;29;20033;-62
2023/08/13 09:59:32;;;;;;;6.45;5.00;;;743.20;1331.20;;;;;;4910448;29;20130;-66
2023/08/13 10:01:59;;;;;;;7.15;4.28;;;743.20;1356.80;;;;;;4910560;29;20032;-66
2023/08/13 10:04:25;;;;;;;5.70;4.88;;;768.10;1254.40;;;;;;4910308;29;20028;-62
2023/08/13 10:06:53;;;;;;;11.45;5.10;;;768.10;1356.80;;;;;;4910760;29;20036;-62
2023/08/13 10:09:19;;;;;;;12.35;5.75;;;768.20;1356.80;;;;;;4894410;29;20080;-62
2023/08/13 10:11:45;;;;;;;5.65;4.50;;;768.20;1356.80;;;;;;4910198;29;20040;-64
2023/08/13 10:14:11;;;;;;;4.85;4.28;;;743.00;1331.20;;;;;;4910470;29;20565;-65
2023/08/13 10:16:39;;;;;;;6.82;4.30;;;743.00;1356.80;;;;;;4910686;29;20052;-64
2023/08/13 10:19:07;;;;;;;9.65;5.18;;;743.30;1382.40;;;;;;4910481;29;20059;-63
2023/08/13 10:21:38;;;;;;;9.80;5.35;;;743.30;1356.80;;;;;;4910565;29;20040;-65
2023/08/13 10:24:10;;;;;;;7.00;5.47;;;743.30;1382.40;;;;;;4910669;29;20024;-63
2023/08/13 10:26:35;;;;;;;5.10;4.60;;;743.10;1356.80;;;;;;4910222;29;20411;-63
2023/08/13 10:29:17;;;;;;;6.72;5.00;;;743.00;1356.80;;;;;;4910728;29;20117;-64
2023/08/13 10:31:54;;;;;;;6.32;5.15;;;742.90;1356.80;;;;;;4910364;29;20060;-63
2023/08/13 10:34:37;;;;;;;6.80;4.68;;;743.10;1356.80;;;;;;4964387;28;20046;-64
2023/08/13 10:37:02;;;;;;;7.32;4.53;;;743.00;1356.80;;;;;;4976503;28;20042;-65
2023/08/13 10:39:53;;;;;;;4.88;4.38;;;743.10;1356.80;;;;;;4982891;28;20030;-65
2023/08/13 10:42:29;;;;;;;8.32;5.15;;;742.80;1382.40;;;;;;4972578;28;20117;-65
2023/08/13 10:45:06;;;;;;;5.95;4.93;;;742.60;1382.40;;;;;;4971871;28;20117;-64
2023/08/13 10:47:55;;;;;;;6.45;5.35;;;742.50;1408.00;;;;;;4975628;28;20161;-63
2023/08/13 10:50:22;;;;;;;5.95;5.30;;;742.40;1408.00;;;;;;4978802;28;20039;-64
2023/08/13 10:53:26;;;;;;;4.57;4.03;;;742.40;1408.00;;;;;;4990528;28;20068;-65
2023/08/13 10:55:52;;;;;;;4.40;3.97;;;742.40;1382.40;;;;;;4979254;28;20440;-63
2023/08/13 10:58:25;;;;;;;6.95;4.63;;;717.50;1331.20;;;;;;4984190;28;20034;-64
2023/08/13 11:00:51;;;;;;;7.38;4.65;;;717.70;1356.80;;;;;;4988042;28;20055;-63
2023/08/13 11:03:18;;;;;;;6.65;4.43;;;717.60;1382.40;;;;;;4975744;28;20062;-65
2023/08/13 11:05:45;;;;;;;8.23;5.28;;;717.50;1331.20;;;;;;4979811;28;20057;-64
2023/08/13 11:08:19;;;;;;;6.30;4.57;;;717.50;1382.40;;;;;;4979921;28;20110;-64
2023/08/13 11:10:46;;;;;;;6.57;4.40;;;717.60;1356.80;;;;;;4978062;28;20121;-62
2023/08/13 11:13:13;;;;;;;4.30;3.88;;;717.70;1356.80;;;;;;4990718;28;20049;-63
2023/08/13 11:15:52;;;;;;;5.65;4.30;;;717.50;1356.80;;;;;;4990570;28;20515;-64
2023/08/13 11:18:18;;;;;;;7.38;4.68;;;717.50;1356.80;;;;;;4990794;28;20018;-64
2023/08/13 11:20:45;;;;;;;6.45;4.63;;;717.50;1356.80;;;;;;4991263;28;20038;-65
2023/08/13 11:23:15;;;;;;;5.03;4.32;;;717.40;1356.80;;;;;;4991024;28;20430;-64
2023/08/13 11:25:43;;;;;;;7.72;4.90;;;717.50;1356.80;;;;;;4991215;28;20073;-64
2023/08/13 11:28:09;;;;;;;8.93;4.70;;;717.50;1356.80;;;;;;4990677;28;20430;-65
2023/08/13 11:30:43;;;;;;;6.97;4.68;;;717.50;1382.40;;;;;;4991245;28;20081;-63
2023/08/13 11:33:08;;;;;;;7.38;4.22;;;717.60;1408.00;;;;;;4990579;28;20034;-64
2023/08/13 11:35:34;;;;;;;8.75;4.65;;;717.60;1356.80;;;;;;4991054;28;20029;-64
2023/08/13 11:38:01;;;;;;;5.00;4.15;;;742.50;1408.00;;;;;;4991122;28;20377;-64
2023/08/13 11:40:26;;;;;;;5.13;3.90;;;717.60;1356.80;;;;;;4990587;28;20018;-63
2023/08/13 11:42:56;;;;;;;5.72;5.00;;;717.70;1382.40;;;;;;4990239;28;20061;-64
2023/08/13 11:45:23;;;;;;;8.50;4.68;;;742.40;1408.00;;;;;;4989733;28;20026;-63
2023/08/13 11:47:50;;;;;;;7.18;4.13;;;742.50;1382.40;;;;;;4990343;28;20461;-63
2023/08/13 11:50:20;;;;;;;5.93;4.88;;;717.50;1382.40;;;;;;4990261;28;20428;-63
2023/08/13 11:53:05;;;;;;;4.30;3.70;;;717.40;1382.40;;;;;;4990581;28;20038;-62
2023/08/13 11:55:32;;;;;;;4.65;4.10;;;717.50;1356.80;;;;;;4990065;28;20030;-64
2023/08/13 11:57:58;;;;;;;6.40;4.43;;;717.70;1356.80;;;;;;4990307;28;20034;-65
2023/08/13 12:00:27;;;;;;;5.80;4.28;;;742.40;1356.80;;;;;;4990505;28;20480;-65
2023/08/13 12:02:55;;;;;;;6.75;4.53;;;742.50;1356.80;;;;;;4990303;28;20023;-64
2023/08/13 12:05:28;;;;;;;6.53;4.35;;;742.40;1331.20;;;;;;4990528;28;20113;-66
2023/08/13 12:08:01;;;;;;;;;;;717.40;1331.20;;;;;;4990591;28;20029;-63
2023/08/13 12:10:27;;;;;;;5.05;4.20;;;717.40;1331.20;;;;;;4989870;28;20339;-62
2023/08/13 12:12:53;;;;;;;7.35;4.50;;;717.60;1356.80;;;;;;4990204;28;20141;-62
2023/08/13 12:15:23;;;;;;;6.95;5.13;;;742.40;1382.40;;;;;;4989498;28;20105;-63